Time;durP1;ratioP1;P1;durP2;ratioP2;P2;SDS_P1;SDS_P2;PMS_P1;PMS_P2;Temp;Humidity;BMP_temperature;BMP_pressure;BME280_temperature;BME280_humidity;BME280_pressure;Samples;Min_cycle;Max_cycle;Signal;HPM_P1;HPM_P2
2023/06/11 00:00:09;;;;;;;9.30;8.23;;;24.20;1.00;;;;;;5026442;28;20563;-79
2023/06/11 00:02:34;;;;;;;10.23;8.23;;;24.20;1.00;;;;;;5029754;28;20189;-79
2023/06/11 00:05:04;;;;;;;10.13;8.10;;;24.10;1.00;;;;;;5030171;28;20826;-79
2023/06/11 00:07:30;;;;;;;10.63;8.20;;;24.10;1.00;;;;;;5026908;28;20273;-79
2023/06/11 00:09:55;;;;;;;10.73;8.13;;;24.10;1.00;;;;;;5030266;28;20493;-79
2023/06/11 00:12:21;;;;;;;10.40;8.93;;;24.10;1.00;;;;;;5029058;28;20861;-78
2023/06/11 00:14:46;;;;;;;9.90;8.30;;;24.00;1.00;;;;;;5029144;28;20215;-79
2023/06/11 00:17:12;;;;;;;10.33;8.30;;;24.00;1.00;;;;;;5028897;28;20189;-79
2023/06/11 00:19:40;;;;;;;10.60;8.10;;;23.80;1.00;;;;;;5029337;28;20204;-79
2023/06/11 00:22:06;;;;;;;10.90;8.40;;;23.80;1.00;;;;;;5029778;28;20201;-79
2023/06/11 00:24:32;;;;;;;9.93;8.23;;;23.60;1.00;;;;;;5020182;28;20993;-79
2023/06/11 00:27:01;;;;;;;11.23;8.30;;;23.60;1.00;;;;;;5031526;28;20519;-79
2023/06/11 00:29:27;;;;;;;9.70;8.40;;;23.50;1.00;;;;;;5031190;28;20184;-79
2023/06/11 00:31:53;;;;;;;9.60;8.17;;;23.40;1.00;;;;;;5030285;28;20482;-79
2023/06/11 00:34:18;;;;;;;10.70;8.80;;;23.30;1.00;;;;;;5029400;28;20957;-79
2023/06/11 00:36:45;;;;;;;11.10;8.13;;;23.30;1.00;;;;;;5023649;28;20709;-79
2023/06/11 00:39:12;;;;;;;9.23;8.10;;;23.20;1.00;;;;;;5030044;28;20217;-79
2023/06/11 00:41:38;;;;;;;11.67;8.70;;;23.20;1.00;;;;;;5032797;28;20436;-79
2023/06/11 00:44:03;;;;;;;9.17;8.27;;;23.10;1.00;;;;;;5030904;28;20448;-79
2023/06/11 00:46:31;;;;;;;9.43;8.47;;;23.10;1.00;;;;;;5028805;28;20440;-79
2023/06/11 00:48:58;;;;;;;13.23;7.70;;;23.20;1.00;;;;;;5029599;28;20229;-79
2023/06/11 00:51:25;;;;;;;14.00;7.93;;;23.30;1.00;;;;;;5030767;28;20550;-79
2023/06/11 00:53:52;;;;;;;10.10;8.80;;;23.00;1.00;;;;;;5030374;28;20969;-79
2023/06/11 00:56:19;;;;;;;9.43;8.43;;;23.00;1.00;;;;;;5025182;28;20439;-79
2023/06/11 00:58:46;;;;;;;9.57;7.90;;;23.00;1.00;;;;;;5030554;28;20508;-79
2023/06/11 01:01:17;;;;;;;12.20;8.80;;;23.00;1.00;;;;;;5030392;28;20438;-79
2023/06/11 01:03:43;;;;;;;11.37;7.60;;;23.00;1.00;;;;;;5030531;28;20424;-79
2023/06/11 01:06:17;;;;;;;10.63;8.00;;;23.00;1.00;;;;;;5029940;28;20962;-79
2023/06/11 01:08:44;;;;;;;9.60;8.13;;;23.00;1.00;;;;;;5028974;28;20448;-79
2023/06/11 01:11:21;;;;;;;10.13;7.47;;;22.90;1.00;;;;;;5030171;28;20823;-79
2023/06/11 01:13:47;;;;;;;12.23;8.73;;;22.80;1.00;;;;;;5021818;28;20481;-79
2023/06/11 01:16:21;;;;;;;10.70;8.60;;;22.80;1.00;;;;;;5030467;28;20538;-79
2023/06/11 01:19:03;;;;;;;10.33;8.77;;;22.80;1.00;;;;;;5029589;28;20821;-80
2023/06/11 01:21:39;;;;;;;9.57;8.40;;;22.80;1.00;;;;;;5030654;28;21004;-79
2023/06/11 01:24:21;;;;;;;11.80;8.73;;;22.70;1.00;;;;;;5028950;28;20538;-79
2023/06/11 01:27:15;;;;;;;9.30;7.83;;;22.70;1.00;;;;;;5030487;28;20430;-79
2023/06/11 01:29:45;;;;;;;9.40;8.40;;;22.60;1.00;;;;;;5021160;28;21021;-79
2023/06/11 01:32:11;;;;;;;10.77;8.70;;;22.70;1.00;;;;;;5025890;28;20514;-78
2023/06/11 01:34:41;;;;;;;8.93;7.93;;;22.60;1.00;;;;;;5029810;28;20869;-78
2023/06/11 01:37:09;;;;;;;10.90;8.50;;;22.50;1.00;;;;;;5028144;28;20623;-79
2023/06/11 01:39:35;;;;;;;10.50;8.80;;;22.50;1.00;;;;;;5029529;28;20424;-78
2023/06/11 01:42:00;;;;;;;11.57;9.17;;;22.40;1.00;;;;;;5030202;28;20439;-79
2023/06/11 01:44:26;;;;;;;11.13;9.00;;;22.40;1.00;;;;;;5029539;28;20205;-78
2023/06/11 01:46:52;;;;;;;10.53;8.50;;;22.30;1.00;;;;;;5029236;28;20193;-79
2023/06/11 01:49:17;;;;;;;11.00;9.73;;;22.30;1.00;;;;;;5030025;28;20435;-78
2023/06/11 01:51:43;;;;;;;11.17;8.60;;;22.30;1.00;;;;;;5029495;28;20216;-79
2023/06/11 01:54:08;;;;;;;9.27;8.33;;;22.20;1.00;;;;;;5029893;28;20224;-79
2023/06/11 01:56:34;;;;;;;11.27;9.30;;;22.30;1.00;;;;;;5027809;28;20246;-79
2023/06/11 01:59:00;;;;;;;9.83;8.83;;;22.20;1.00;;;;;;5029475;28;20664;-78
2023/06/11 02:01:28;;;;;;;9.97;8.90;;;22.10;1.00;;;;;;5029201;28;20185;-78
2023/06/11 02:03:54;;;;;;;12.67;8.70;;;22.10;1.00;;;;;;5029692;28;20232;-78
2023/06/11 02:06:20;;;;;;;10.27;8.57;;;22.10;1.00;;;;;;5028065;28;20435;-78
2023/06/11 02:08:45;;;;;;;12.00;8.70;;;22.10;1.00;;;;;;5028412;28;20432;-78
2023/06/11 02:11:11;;;;;;;8.67;7.77;;;22.00;1.00;;;;;;5029213;28;20201;-78
2023/06/11 02:13:37;;;;;;;11.20;8.87;;;21.90;1.00;;;;;;5029575;28;20200;-78
2023/06/11 02:16:02;;;;;;;11.53;9.03;;;22.30;1.00;;;;;;5029653;28;20177;-79
2023/06/11 02:18:28;;;;;;;9.63;8.27;;;21.90;1.00;;;;;;5028028;28;20181;-78
2023/06/11 02:20:53;;;;;;;9.83;8.70;;;21.90;1.00;;;;;;5027593;28;20766;-79
2023/06/11 02:23:19;;;;;;;10.23;8.60;;;21.90;1.00;;;;;;5027516;28;20711;-79
2023/06/11 02:25:44;;;;;;;13.90;8.87;;;21.80;1.00;;;;;;5029105;28;20207;-79
2023/06/11 02:28:10;;;;;;;9.50;8.50;;;21.80;1.00;;;;;;5029433;28;20189;-79
2023/06/11 02:30:36;;;;;;;14.23;8.97;;;21.70;1.00;;;;;;5029109;28;20687;-79
2023/06/11 02:33:01;;;;;;;10.47;9.07;;;21.70;1.00;;;;;;5028811;28;20431;-79
2023/06/11 02:35:27;;;;;;;10.57;9.00;;;21.70;1.00;;;;;;5027106;28;20203;-78
2023/06/11 02:37:52;;;;;;;10.97;8.93;;;20.80;1.00;;;;;;5028479;28;20200;-79
2023/06/11 02:40:18;;;;;;;10.57;9.33;;;21.60;1.00;;;;;;5029488;28;20181;-79
2023/06/11 02:42:44;;;;;;;9.50;8.50;;;21.60;1.00;;;;;;5026574;28;20177;-79
2023/06/11 02:45:10;;;;;;;10.93;9.20;;;21.60;1.00;;;;;;5027480;28;20695;-79
2023/06/11 02:47:35;;;;;;;9.90;8.70;;;21.60;1.00;;;;;;5029728;28;20428;-79
2023/06/11 02:50:01;;;;;;;9.97;8.40;;;21.60;1.00;;;;;;5032292;28;20173;-79
2023/06/11 02:52:26;;;;;;;10.30;8.83;;;21.60;1.00;;;;;;5032153;28;20640;-79
2023/06/11 02:54:52;;;;;;;11.37;8.50;;;21.50;1.00;;;;;;5031922;28;20204;-79
2023/06/11 02:57:17;;;;;;;10.60;8.90;;;21.50;1.00;;;;;;5025913;28;20667;-79
2023/06/11 02:59:43;;;;;;;13.00;9.53;;;21.50;1.00;;;;;;5031713;28;20180;-78
2023/06/11 03:02:08;;;;;;;9.87;8.70;;;21.50;1.00;;;;;;5031627;28;20193;-78
2023/06/11 03:04:34;;;;;;;11.03;9.30;;;21.50;1.00;;;;;;5031724;28;20197;-78
2023/06/11 03:06:59;;;;;;;12.83;9.30;;;21.50;1.00;;;;;;5031540;28;20193;-78
2023/06/11 03:09:25;;;;;;;16.67;9.70;;;21.50;1.00;;;;;;5032659;28;20197;-79
2023/06/11 03:11:52;;;;;;;10.27;9.17;;;21.40;1.00;;;;;;5031859;28;20201;-78
2023/06/11 03:14:17;;;;;;;15.70;9.70;;;21.40;1.00;;;;;;5032150;28;20553;-79
2023/06/11 03:16:42;;;;;;;11.00;9.27;;;21.40;1.00;;;;;;5031512;28;20522;-79
2023/06/11 03:19:08;;;;;;;11.00;8.57;;;21.40;1.00;;;;;;5031538;28;20593;-79
2023/06/11 03:21:35;;;;;;;10.63;9.23;;;21.40;1.00;;;;;;5028214;28;20212;-78
2023/06/11 03:24:00;;;;;;;11.13;9.00;;;21.30;1.00;;;;;;5030766;28;20675;-79
2023/06/11 03:26:26;;;;;;;12.07;9.47;;;21.30;1.00;;;;;;5031479;28;20535;-79
2023/06/11 03:28:51;;;;;;;11.30;9.17;;;21.30;1.00;;;;;;5030269;28;20181;-78
2023/06/11 03:31:17;;;;;;;13.20;10.17;;;21.30;1.00;;;;;;5032263;28;20279;-79
2023/06/11 03:33:42;;;;;;;15.80;9.57;;;21.20;1.00;;;;;;5031943;28;20182;-79
2023/06/11 03:36:08;;;;;;;10.23;9.10;;;21.20;1.00;;;;;;5030817;28;20186;-79
2023/06/11 03:38:33;;;;;;;11.53;9.30;;;21.20;1.00;;;;;;5030212;28;20647;-79
2023/06/11 03:40:59;;;;;;;12.17;8.77;;;21.20;1.00;;;;;;5030883;28;20622;-79
2023/06/11 03:43:24;;;;;;;11.50;9.20;;;21.10;1.00;;;;;;5032388;28;20271;-79
2023/06/11 03:45:50;;;;;;;10.83;8.93;;;21.20;1.00;;;;;;5030274;28;20722;-79
2023/06/11 03:48:16;;;;;;;10.13;9.03;;;21.20;1.00;;;;;;5030163;28;20196;-79
2023/06/11 03:50:41;;;;;;;10.03;9.00;;;21.20;1.00;;;;;;5031193;28;20563;-79
2023/06/11 03:53:07;;;;;;;10.87;8.90;;;21.20;1.00;;;;;;5030972;28;20189;-79
2023/06/11 03:55:32;;;;;;;12.53;8.77;;;21.20;1.00;;;;;;5030601;28;20205;-78
2023/06/11 03:57:58;;;;;;;10.93;8.97;;;21.20;1.00;;;;;;5030983;28;20194;-79
2023/06/11 04:00:23;;;;;;;13.77;9.57;;;21.20;1.00;;;;;;5031098;28;20667;-79
2023/06/11 04:02:49;;;;;;;11.97;9.60;;;21.20;1.00;;;;;;5031251;28;20603;-79
2023/06/11 04:05:15;;;;;;;12.43;9.40;;;21.20;1.00;;;;;;5028843;28;20775;-78
2023/06/11 04:07:40;;;;;;;10.53;8.87;;;21.20;1.00;;;;;;5029920;28;20177;-79
2023/06/11 04:10:09;;;;;;;10.40;9.13;;;21.20;1.00;;;;;;5030793;28;20189;-79
2023/06/11 04:12:35;;;;;;;10.37;9.20;;;21.20;1.00;;;;;;5030572;28;20729;-78
2023/06/11 04:15:01;;;;;;;11.23;9.50;;;21.20;1.00;;;;;;5031300;28;20455;-79
2023/06/11 04:17:26;;;;;;;13.33;9.80;;;21.30;1.00;;;;;;5030287;28;20234;-79
2023/06/11 04:19:52;;;;;;;11.30;9.33;;;21.30;1.00;;;;;;5028393;28;23220;-79
2023/06/11 04:22:17;;;;;;;10.90;9.37;;;21.30;1.00;;;;;;5031201;28;20193;-79
2023/06/11 04:24:42;;;;;;;12.80;9.63;;;21.30;1.00;;;;;;5029747;28;20208;-79
2023/06/11 04:27:11;;;;;;;11.77;9.20;;;21.30;1.00;;;;;;5029365;28;20189;-79
2023/06/11 04:29:36;;;;;;;12.93;9.40;;;21.40;1.00;;;;;;5031305;28;20208;-79
2023/06/11 04:32:03;;;;;;;12.30;9.40;;;21.30;1.00;;;;;;5029547;28;20534;-79
2023/06/11 04:34:29;;;;;;;9.97;8.90;;;21.40;1.00;;;;;;5029330;28;20215;-79
2023/06/11 04:36:58;;;;;;;10.27;9.17;;;21.50;1.00;;;;;;5028298;28;20447;-79
2023/06/11 04:39:24;;;;;;;11.77;9.73;;;21.50;1.00;;;;;;5029478;28;20432;-78
2023/06/11 04:41:51;;;;;;;11.97;9.17;;;21.60;1.00;;;;;;5030478;28;20442;-79
2023/06/11 04:44:18;;;;;;;12.13;9.20;;;21.60;1.00;;;;;;5029434;28;20238;-79
2023/06/11 04:46:43;;;;;;;11.20;9.77;;;21.50;1.00;;;;;;5027556;28;20989;-78
2023/06/11 04:49:09;;;;;;;10.40;9.30;;;21.50;1.00;;;;;;5030271;28;20475;-79
2023/06/11 04:51:40;;;;;;;10.87;9.60;;;21.50;1.00;;;;;;5023508;28;20687;-78
2023/06/11 04:54:07;;;;;;;10.70;9.23;;;21.50;1.00;;;;;;5023914;28;20545;-78
2023/06/11 04:56:33;;;;;;;10.27;9.00;;;21.50;1.00;;;;;;5026122;28;20432;-78
2023/06/11 04:58:59;;;;;;;10.70;8.87;;;21.60;1.00;;;;;;5029155;28;20432;-79
2023/06/11 05:01:30;;;;;;;12.17;9.20;;;21.60;1.00;;;;;;5029098;28;20436;-79
2023/06/11 05:03:56;;;;;;;11.03;9.17;;;21.50;1.00;;;;;;5029833;28;20463;-77
2023/06/11 05:06:23;;;;;;;12.33;9.07;;;21.50;1.00;;;;;;5028675;28;20961;-79
2023/06/11 05:08:48;;;;;;;14.53;9.87;;;21.50;1.00;;;;;;5028508;28;20208;-79
2023/06/11 05:11:14;;;;;;;9.50;8.50;;;21.60;1.00;;;;;;5027673;28;20467;-79
2023/06/11 05:13:40;;;;;;;10.60;8.37;;;21.70;1.00;;;;;;5029783;28;20209;-78
2023/06/11 05:16:05;;;;;;;12.83;8.53;;;21.70;1.00;;;;;;5029726;28;20196;-79
2023/06/11 05:18:31;;;;;;;9.60;8.40;;;21.70;1.00;;;;;;5029229;28;20185;-78
2023/06/11 05:20:56;;;;;;;11.23;9.10;;;21.80;1.00;;;;;;5028669;28;20208;-79
2023/06/11 05:23:28;;;;;;;9.70;8.70;;;22.10;1.00;;;;;;5028474;28;20271;-78
2023/06/11 05:25:58;;;;;;;9.43;8.43;;;21.80;1.00;;;;;;5029053;28;20205;-79
2023/06/11 05:28:24;;;;;;;10.10;8.77;;;21.80;1.00;;;;;;5028807;28;20498;-79
2023/06/11 05:30:49;;;;;;;10.70;9.20;;;21.80;1.00;;;;;;5028150;28;20467;-78
2023/06/11 05:33:15;;;;;;;11.73;8.37;;;21.80;1.00;;;;;;5028925;28;20200;-78
2023/06/11 05:35:43;;;;;;;9.93;8.93;;;21.80;1.00;;;;;;5027122;28;20746;-78
2023/06/11 05:38:09;;;;;;;10.10;8.53;;;21.90;1.00;;;;;;5029371;28;20450;-78
2023/06/11 05:40:36;;;;;;;11.80;8.43;;;22.00;1.00;;;;;;5029464;28;20524;-79
2023/06/11 05:43:05;;;;;;;10.27;8.27;;;22.00;1.00;;;;;;5027787;28;20926;-79
2023/06/11 05:45:31;;;;;;;9.67;8.50;;;22.00;1.00;;;;;;5028873;28;20455;-79
2023/06/11 05:47:57;;;;;;;11.10;8.20;;;22.10;1.00;;;;;;5027087;28;20432;-78
2023/06/11 05:50:23;;;;;;;9.87;8.70;;;22.10;1.00;;;;;;5028992;28;20922;-79
2023/06/11 05:52:48;;;;;;;10.40;8.90;;;22.10;1.00;;;;;;5028207;28;20555;-79
2023/06/11 05:55:14;;;;;;;13.10;8.30;;;22.20;1.00;;;;;;5027053;28;20240;-79
2023/06/11 05:57:39;;;;;;;9.43;8.43;;;22.30;1.00;;;;;;5026813;28;20185;-78
2023/06/11 06:00:07;;;;;;;10.07;8.07;;;22.30;1.00;;;;;;5029294;28;20232;-79
2023/06/11 06:02:33;;;;;;;9.70;8.53;;;22.40;1.00;;;;;;5026619;28;20185;-78
2023/06/11 06:04:58;;;;;;;10.30;8.50;;;22.40;1.00;;;;;;5027513;28;20465;-79
2023/06/11 06:07:24;;;;;;;12.60;8.77;;;22.50;1.00;;;;;;5027325;28;20192;-78
2023/06/11 06:09:49;;;;;;;9.87;8.60;;;22.60;1.00;;;;;;5029044;28;20169;-79
2023/06/11 06:12:15;;;;;;;10.57;8.33;;;22.80;1.00;;;;;;5028098;28;20204;-79
2023/06/11 06:14:41;;;;;;;10.00;8.53;;;22.80;1.00;;;;;;5028337;28;20229;-78
2023/06/11 06:17:06;;;;;;;10.67;8.20;;;22.90;1.00;;;;;;5026698;28;20498;-79
2023/06/11 06:19:32;;;;;;;13.00;8.57;;;23.00;1.00;;;;;;5027715;28;20282;-79
2023/06/11 06:21:57;;;;;;;9.27;8.20;;;22.90;1.00;;;;;;5027287;28;20972;-79
2023/06/11 06:24:23;;;;;;;9.43;7.63;;;22.90;1.00;;;;;;5028350;28;20201;-79
2023/06/11 06:26:56;;;;;;;13.70;8.37;;;22.90;1.00;;;;;;5028504;28;20185;-80
2023/06/11 06:29:23;;;;;;;10.67;8.50;;;23.10;1.00;;;;;;5025932;28;20655;-79
2023/06/11 06:31:49;;;;;;;10.03;8.20;;;23.30;1.00;;;;;;5027185;28;20471;-79
2023/06/11 06:34:14;;;;;;;10.73;8.27;;;23.20;1.00;;;;;;5028138;28;20459;-79
2023/06/11 06:36:40;;;;;;;9.83;8.47;;;23.20;1.00;;;;;;5027991;28;20188;-78
2023/06/11 06:39:05;;;;;;;8.93;8.03;;;23.30;1.00;;;;;;5023303;28;20189;-79
2023/06/11 06:41:31;;;;;;;9.00;8.10;;;23.40;1.00;;;;;;5028825;28;20197;-79
2023/06/11 06:43:56;;;;;;;9.43;8.40;;;23.50;1.00;;;;;;5024738;28;20201;-79
2023/06/11 06:46:22;;;;;;;10.20;8.20;;;23.50;1.00;;;;;;5028460;28;20235;-79
2023/06/11 06:48:47;;;;;;;11.77;8.30;;;23.60;1.00;;;;;;5027210;28;20319;-79
2023/06/11 06:51:13;;;;;;;11.00;8.23;;;23.70;1.00;;;;;;5028539;28;20730;-79
2023/06/11 06:53:39;;;;;;;9.47;8.47;;;23.90;1.00;;;;;;5026250;28;20232;-79
2023/06/11 06:56:05;;;;;;;10.40;8.27;;;23.90;1.00;;;;;;5027490;28;20513;-79
2023/06/11 06:58:32;;;;;;;9.80;8.03;;;24.00;1.00;;;;;;5025925;28;20467;-79
2023/06/11 07:00:57;;;;;;;10.40;7.90;;;24.20;1.00;;;;;;5027964;28;20181;-79
2023/06/11 07:03:23;;;;;;;9.57;8.50;;;24.20;1.00;;;;;;5027896;28;20439;-79
2023/06/11 07:05:49;;;;;;;9.20;8.30;;;24.20;1.00;;;;;;5026437;28;20687;-79
2023/06/11 07:08:14;;;;;;;9.53;8.37;;;24.30;1.00;;;;;;5028708;28;20189;-79
2023/06/11 07:10:49;;;;;;;13.57;8.23;;;24.50;1.00;;;;;;5027894;28;20220;-79
2023/06/11 07:13:15;;;;;;;11.37;8.37;;;24.70;1.00;;;;;;5026259;28;20181;-79
2023/06/11 07:15:41;;;;;;;9.70;8.03;;;24.90;1.00;;;;;;5027438;28;20455;-79
2023/06/11 07:18:06;;;;;;;8.97;8.07;;;25.10;1.00;;;;;;5026013;28;20278;-79
2023/06/11 07:20:32;;;;;;;10.03;8.17;;;25.20;1.00;;;;;;5027517;28;20177;-79
2023/06/11 07:22:59;;;;;;;9.47;8.47;;;25.20;1.00;;;;;;5022603;28;20605;-79
2023/06/11 07:25:28;;;;;;;8.63;7.67;;;25.50;1.00;;;;;;5025610;28;20205;-79
2023/06/11 07:27:54;;;;;;;13.40;8.10;;;25.40;1.00;;;;;;5028684;28;20897;-80
2023/06/11 07:30:19;;;;;;;8.53;7.63;;;25.50;1.00;;;;;;5029241;28;20439;-78
2023/06/11 07:32:45;;;;;;;8.80;7.60;;;25.50;1.00;;;;;;5028589;28;20463;-78
2023/06/11 07:35:10;;;;;;;10.27;7.50;;;27.40;1.00;;;;;;5032704;28;20215;-78
2023/06/11 07:37:36;;;;;;;9.90;8.10;;;26.00;1.00;;;;;;5034116;28;20249;-79
2023/06/11 07:40:04;;;;;;;13.47;8.10;;;26.00;1.00;;;;;;5031446;28;20173;-78
2023/06/11 07:42:29;;;;;;;9.75;7.25;;;26.20;1.00;;;;;;5031499;28;20491;-80
2023/06/11 07:44:54;;;;;;;8.20;7.30;;;26.50;1.00;;;;;;5031989;28;20205;-79
2023/06/11 07:47:20;;;;;;;9.30;7.50;;;26.90;1.00;;;;;;5032781;28;20192;-78
2023/06/11 07:49:46;;;;;;;11.13;8.23;;;27.10;1.00;;;;;;5036209;28;20185;-77
2023/06/11 07:52:12;;;;;;;8.57;7.60;;;27.10;1.00;;;;;;5033400;28;20243;-79
2023/06/11 07:54:37;;;;;;;8.50;7.27;;;27.20;1.00;;;;;;5035575;28;20209;-79
2023/06/11 07:57:03;;;;;;;10.77;7.43;;;27.30;1.00;;;;;;5036715;28;20184;-79
2023/06/11 07:59:29;;;;;;;8.33;7.40;;;27.40;1.00;;;;;;5031854;28;20240;-79
2023/06/11 08:01:55;;;;;;;9.40;7.73;;;27.50;1.00;;;;;;5033761;28;20220;-79
2023/06/11 08:04:21;;;;;;;8.20;7.23;;;27.60;1.00;;;;;;5032601;28;20621;-79
2023/06/11 08:06:46;;;;;;;8.33;7.20;;;27.60;1.00;;;;;;5030435;28;20193;-77
2023/06/11 08:09:12;;;;;;;8.27;7.47;;;28.00;1.00;;;;;;5031388;28;20228;-79
2023/06/11 08:11:37;;;;;;;10.00;7.90;;;28.20;1.00;;;;;;5031426;28;20216;-78
2023/06/11 08:14:03;;;;;;;27.37;7.90;;;28.30;1.00;;;;;;5031648;28;20723;-74
2023/06/11 08:16:28;;;;;;;11.70;7.53;;;28.30;1.00;;;;;;5029270;28;20185;-79
2023/06/11 08:18:55;;;;;;;8.07;7.27;;;28.40;1.00;;;;;;5029906;28;20181;-79
2023/06/11 08:21:21;;;;;;;10.30;7.27;;;28.60;1.00;;;;;;5029388;28;20247;-77
2023/06/11 08:23:48;;;;;;;11.60;7.70;;;28.80;1.00;;;;;;5029728;28;20299;-78
2023/06/11 08:26:14;;;;;;;11.37;6.63;;;28.90;1.00;;;;;;5029039;28;20181;-78
2023/06/11 08:28:39;;;;;;;8.23;6.83;;;29.20;1.00;;;;;;5030842;28;20192;-77
2023/06/11 08:31:05;;;;;;;11.37;7.10;;;29.50;1.00;;;;;;5029849;28;20213;-77
2023/06/11 08:33:33;;;;;;;7.82;7.00;;;;;;;;;;5031214;28;20177;-78
2023/06/11 08:35:58;;;;;;;8.80;7.57;;;29.40;1.00;;;;;;5036274;28;20184;-77
2023/06/11 08:38:25;;;;;;;14.50;7.55;;;29.50;1.00;;;;;;5031459;28;20260;-77
2023/06/11 08:40:50;;;;;;;10.20;7.30;;;29.60;1.00;;;;;;5030740;28;20612;-77
2023/06/11 08:43:16;;;;;;;8.40;7.38;;;29.60;1.00;;;;;;5031046;28;20212;-77
2023/06/11 08:45:43;;;;;;;7.57;6.65;;;29.70;1.00;;;;;;5031140;28;20203;-76
2023/06/11 08:48:10;;;;;;;7.80;6.90;;;29.90;1.00;;;;;;5036862;28;20206;-77
2023/06/11 08:50:36;;;;;;;7.55;6.85;;;30.30;1.00;;;;;;5029281;28;20749;-78
2023/06/11 08:53:03;;;;;;;9.57;7.70;;;30.20;1.00;;;;;;5026950;28;20212;-78
2023/06/11 08:55:31;;;;;;;11.52;7.82;;;29.90;1.00;;;;;;5029927;28;20571;-77
2023/06/11 08:57:57;;;;;;;9.88;7.43;;;29.90;1.00;;;;;;5025282;28;20888;-78
2023/06/11 09:00:22;;;;;;;8.90;7.32;;;29.80;1.00;;;;;;5033320;28;20264;-78
2023/06/11 09:02:49;;;;;;;9.40;7.18;;;30.60;1.00;;;;;;5026579;28;20193;-78
2023/06/11 09:05:14;;;;;;;9.70;7.28;;;30.60;1.00;;;;;;5027445;28;20529;-79
2023/06/11 09:07:50;;;;;;;7.70;6.47;;;31.30;1.00;;;;;;5030311;28;20192;-79
2023/06/11 09:10:17;;;;;;;10.15;7.20;;;32.10;1.00;;;;;;5030981;28;20634;-78
2023/06/11 09:12:43;;;;;;;8.25;6.82;;;33.00;1.00;;;;;;5027812;28;20208;-78
2023/06/11 09:15:09;;;;;;;12.05;7.03;;;33.90;1.00;;;;;;5029461;28;20205;-78
2023/06/11 09:17:36;;;;;;;8.73;6.75;;;34.40;1.00;;;;;;5028339;28;20186;-78
2023/06/11 09:20:04;;;;;;;7.85;6.35;;;34.60;1.00;;;;;;5027162;28;20181;-77
2023/06/11 09:22:30;;;;;;;9.55;5.70;;;35.20;1.00;;;;;;5026538;28;20197;-77
2023/06/11 09:24:56;;;;;;;7.78;6.18;;;36.20;1.00;;;;;;5031153;28;20205;-78
2023/06/11 09:27:22;;;;;;;8.55;6.30;;;36.60;1.00;;;;;;5029530;28;20433;-78
2023/06/11 09:29:47;;;;;;;7.43;5.53;;;37.00;1.00;;;;;;5028882;28;20184;-78
2023/06/11 09:32:13;;;;;;;8.00;6.20;;;37.10;1.00;;;;;;5027093;28;20209;-78
2023/06/11 09:34:40;;;;;;;9.98;6.15;;;37.10;1.00;;;;;;5029224;28;20304;-77
2023/06/11 09:37:09;;;;;;;9.52;6.03;;;36.60;1.00;;;;;;5027152;28;20173;-79
2023/06/11 09:39:35;;;;;;;7.82;6.38;;;36.20;1.00;;;;;;5029686;28;20185;-78
2023/06/11 09:42:00;;;;;;;6.68;5.90;;;37.20;1.00;;;;;;5028179;28;20200;-78
2023/06/11 09:44:32;;;;;;;11.55;5.63;;;38.30;1.00;;;;;;5028340;28;20225;-78
2023/06/11 09:46:59;;;;;;;5.72;5.13;;;38.40;1.00;;;;;;5030008;28;20184;-79
2023/06/11 09:49:25;;;;;;;7.20;5.97;;;38.40;1.00;;;;;;5031989;28;20193;-79
2023/06/11 09:51:52;;;;;;;8.63;6.10;;;38.50;1.00;;;;;;5033918;28;20679;-79
2023/06/11 09:54:20;;;;;;;6.97;5.63;;;37.20;1.00;;;;;;5024337;28;20666;-79
2023/06/11 09:56:47;;;;;;;9.20;5.30;;;39.00;1.00;;;;;;5024972;28;20547;-79
2023/06/11 09:59:16;;;;;;;11.38;5.68;;;39.20;1.00;;;;;;5029404;28;20208;-79
2023/06/11 10:01:46;;;;;;;13.70;6.00;;;38.90;1.00;;;;;;5023881;28;20181;-78
2023/06/11 10:04:12;;;;;;;13.23;5.75;;;38.70;1.00;;;;;;5032010;28;20296;-79
2023/06/11 10:06:44;;;;;;;8.05;5.25;;;39.10;1.00;;;;;;5031222;28;20272;-79
2023/06/11 10:09:12;;;;;;;8.73;5.60;;;38.30;1.00;;;;;;5026667;28;20186;-78
2023/06/11 10:11:40;;;;;;;9.82;5.60;;;38.20;1.00;;;;;;5030847;28;20208;-79
2023/06/11 10:14:11;;;;;;;7.57;6.00;;;38.50;1.00;;;;;;5030269;28;20189;-80
2023/06/11 10:16:37;;;;;;;6.80;5.50;;;38.10;1.00;;;;;;5029676;28;20719;-79
2023/06/11 10:19:06;;;;;;;10.63;6.10;;;38.30;1.00;;;;;;5030079;28;20228;-79
2023/06/11 10:21:39;;;;;;;6.55;5.53;;;37.80;1.00;;;;;;5025165;28;20210;-79
2023/06/11 10:24:06;;;;;;;7.95;6.15;;;37.60;1.00;;;;;;5032880;28;20258;-79
2023/06/11 10:26:35;;;;;;;7.25;6.55;;;37.10;1.00;;;;;;5035215;28;20181;-80
2023/06/11 10:29:09;;;;;;;7.50;6.15;;;37.50;1.00;;;;;;5032394;28;20699;-79
2023/06/11 10:31:42;;;;;;;7.00;5.57;;;37.80;1.00;;;;;;5033086;28;20200;-79
2023/06/11 10:34:14;;;;;;;8.27;5.93;;;38.30;1.00;;;;;;5033605;28;20196;-79
2023/06/11 10:36:41;;;;;;;9.15;5.75;;;39.20;1.00;;;;;;5041443;28;20263;-80
2023/06/11 10:39:11;;;;;;;7.68;5.72;;;39.80;1.00;;;;;;5038582;28;20208;-79
2023/06/11 10:41:40;;;;;;;6.72;5.22;;;40.60;1.00;;;;;;5040931;28;20427;-79
2023/06/11 10:44:07;;;;;;;7.78;5.70;;;41.30;1.00;;;;;;5030334;28;20197;-80
2023/06/11 10:46:43;;;;;;;9.38;5.50;;;41.60;1.00;;;;;;5030277;28;20216;-78
2023/06/11 10:49:14;;;;;;;8.30;5.25;;;41.40;1.00;;;;;;5028891;28;20216;-79
2023/06/11 10:51:39;;;;;;;8.43;5.50;;;40.40;1.00;;;;;;5023685;28;20212;-79
2023/06/11 10:54:07;;;;;;;5.55;5.05;;;40.00;1.00;;;;;;5027294;28;20208;-78
2023/06/11 10:56:37;;;;;;;8.40;5.32;;;40.60;1.00;;;;;;5027095;28;20261;-79
2023/06/11 10:59:07;;;;;;;6.88;5.18;;;41.40;1.00;;;;;;5025434;28;20204;-78
2023/06/11 11:01:33;;;;;;;8.50;5.80;;;41.70;1.00;;;;;;5028577;28;20181;-78
2023/06/11 11:04:01;;;;;;;10.68;6.05;;;42.10;1.00;;;;;;5027685;28;20259;-78
2023/06/11 11:06:28;;;;;;;6.93;5.82;;;42.30;1.00;;;;;;5025378;28;20667;-78
2023/06/11 11:08:57;;;;;;;6.38;5.68;;;41.70;1.00;;;;;;5027741;28;20189;-77
2023/06/11 11:11:24;;;;;;;5.95;5.35;;;42.30;1.00;;;;;;5032291;28;20671;-79
2023/06/11 11:13:50;;;;;;;6.50;5.60;;;43.30;1.00;;;;;;5032965;28;20221;-78
2023/06/11 11:16:19;;;;;;;9.73;7.10;;;43.30;1.00;;;;;;5032750;28;20191;-78
2023/06/11 11:18:49;;;;;;;6.32;5.30;;;42.90;1.00;;;;;;5032844;28;20174;-79
2023/06/11 11:21:15;;;;;;;9.30;5.72;;;42.90;1.00;;;;;;5032802;28;20587;-78
2023/06/11 11:23:48;;;;;;;10.15;6.00;;;43.00;1.00;;;;;;5032567;28;20267;-79
2023/06/11 11:26:15;;;;;;;10.30;5.55;;;43.20;1.00;;;;;;5032974;28;20268;-78
2023/06/11 11:28:40;;;;;;;6.03;5.43;;;43.00;1.00;;;;;;5033149;28;20678;-79
2023/06/11 11:31:07;;;;;;;9.52;5.68;;;42.80;1.00;;;;;;5036584;28;20205;-79
2023/06/11 11:33:34;;;;;;;12.25;5.63;;;41.50;1.00;;;;;;5035168;28;20605;-79
2023/06/11 11:36:02;;;;;;;8.25;5.82;;;41.50;1.00;;;;;;5034710;28;20224;-80
2023/06/11 11:38:36;;;;;;;7.97;4.82;;;42.10;1.00;;;;;;5032856;28;20554;-80
2023/06/11 11:41:02;;;;;;;6.63;5.20;;;42.90;1.00;;;;;;5043021;28;20187;-80
2023/06/11 11:43:41;;;;;;;6.35;5.30;;;42.40;1.00;;;;;;5032150;28;20441;-80
2023/06/11 11:46:20;;;;;;;5.40;4.88;;;42.80;1.00;;;;;;5035206;28;20265;-79
2023/06/11 11:48:46;;;;;;;7.28;5.20;;;43.60;1.00;;;;;;5035525;28;20189;-80
2023/06/11 11:51:15;;;;;;;6.63;5.40;;;43.60;1.00;;;;;;5037026;28;20284;-81
2023/06/11 11:53:42;;;;;;;5.78;5.07;;;43.20;1.00;;;;;;5035914;28;20177;-79
2023/06/11 11:56:09;;;;;;;6.53;5.03;;;43.20;1.00;;;;;;5032793;28;20185;-80
2023/06/11 11:58:39;;;;;;;7.32;5.45;;;42.90;1.00;;;;;;5031732;28;20235;-79
2023/06/11 12:01:08;;;;;;;10.27;5.38;;;42.50;1.00;;;;;;5030384;28;20729;-80
2023/06/11 12:03:34;;;;;;;7.28;5.05;;;44.10;1.00;;;;;;5037646;28;20185;-81
2023/06/11 12:06:08;;;;;;;7.82;5.53;;;44.10;1.00;;;;;;5035191;28;20234;-80
2023/06/11 12:08:35;;;;;;;5.85;5.05;;;44.50;1.00;;;;;;5030254;28;20188;-80
2023/06/11 12:11:03;;;;;;;9.07;5.15;;;44.60;1.00;;;;;;5036548;28;20208;-78
2023/06/11 12:13:29;;;;;;;7.22;5.20;;;45.00;1.00;;;;;;5035328;28;20236;-81
2023/06/11 12:15:55;;;;;;;6.03;4.90;;;44.70;1.00;;;;;;5035936;28;20618;-81
2023/06/11 12:18:20;;;;;;;6.28;4.57;;;44.30;1.00;;;;;;5036962;28;20189;-81
2023/06/11 12:20:46;;;;;;;7.32;4.72;;;44.60;1.00;;;;;;5037690;28;20177;-81
2023/06/11 12:23:12;;;;;;;10.05;5.10;;;44.50;1.00;;;;;;5028184;28;20173;-81
2023/06/11 12:25:38;;;;;;;8.77;4.78;;;44.70;1.00;;;;;;5037866;28;20220;-81
2023/06/11 12:28:04;;;;;;;8.88;4.95;;;45.10;1.00;;;;;;5036124;28;20186;-81
2023/06/11 12:30:31;;;;;;;7.68;4.93;;;45.20;1.00;;;;;;5035888;28;20185;-81
2023/06/11 12:32:57;;;;;;;6.50;4.88;;;45.00;1.00;;;;;;5035133;28;20296;-81
2023/06/11 12:35:23;;;;;;;11.65;4.53;;;45.40;1.00;;;;;;5038041;28;20274;-81
2023/06/11 12:37:50;;;;;;;8.13;4.80;;;45.90;1.00;;;;;;5032376;28;20177;-81
2023/06/11 12:40:15;;;;;;;9.60;4.45;;;45.30;1.00;;;;;;5036998;28;20177;-82
2023/06/11 12:42:41;;;;;;;7.13;4.82;;;45.40;1.00;;;;;;5044724;28;20216;-81
2023/06/11 12:45:07;;;;;;;5.50;4.80;;;45.80;1.00;;;;;;5038176;28;20229;-81
2023/06/11 12:47:32;;;;;;;14.13;4.57;;;45.90;1.00;;;;;;5042500;28;20659;-81
2023/06/11 12:49:58;;;;;;;5.30;4.80;;;46.00;1.00;;;;;;5040596;28;20192;-81